Time;durP1;ratioP1;P1;durP2;ratioP2;P2;SDS_P1;SDS_P2;PMS_P1;PMS_P2;Temp;Humidity;BMP_temperature;BMP_pressure;BME280_temperature;BME280_humidity;BME280_pressure;Samples;Min_cycle;Max_cycle;Signal;HPM_P1;HPM_P2
2022/06/17 00:00:53;;;;;;;2.42;2.22;;;22.20;57.30;;;;;;5051046;28;20131;-62
2022/06/17 00:03:20;;;;;;;3.75;2.45;;;22.20;57.30;;;;;;5053595;28;20128;-62
2022/06/17 00:05:46;;;;;;;2.60;2.40;;;22.20;57.30;;;;;;5052938;28;20036;-63
2022/06/17 00:08:22;;;;;;;2.88;2.63;;;22.20;57.30;;;;;;5051994;28;20043;-61
2022/06/17 00:10:47;;;;;;;2.60;2.40;;;22.20;57.20;;;;;;5048930;28;20040;-62
2022/06/17 00:13:17;;;;;;;2.67;2.47;;;22.20;57.20;;;;;;5054424;28;20074;-62
2022/06/17 00:15:42;;;;;;;2.72;2.33;;;22.20;57.10;;;;;;5050392;28;20118;-61
2022/06/17 00:18:08;;;;;;;2.63;2.42;;;22.20;57.10;;;;;;5051771;28;20036;-62
2022/06/17 00:20:35;;;;;;;2.45;2.25;;;22.20;57.10;;;;;;5052940;28;20408;-62
2022/06/17 00:23:01;;;;;;;2.53;2.28;;;22.20;57.10;;;;;;5050440;28;20059;-62
2022/06/17 00:25:33;;;;;;;2.60;2.40;;;22.20;57.10;;;;;;5034747;28;20055;-62
2022/06/17 00:27:59;;;;;;;2.63;2.42;;;22.20;57.10;;;;;;5054307;28;20094;-61
2022/06/17 00:30:27;;;;;;;2.80;2.50;;;22.20;57.00;;;;;;5055199;28;20082;-61
2022/06/17 00:32:54;;;;;;;2.60;2.40;;;22.20;57.00;;;;;;5054721;28;20032;-63
2022/06/17 00:35:21;;;;;;;2.78;2.58;;;22.20;56.90;;;;;;5055187;28;20068;-63
2022/06/17 00:37:47;;;;;;;2.47;2.28;;;22.20;56.90;;;;;;5056383;28;20128;-62
2022/06/17 00:40:18;;;;;;;2.60;2.40;;;22.20;56.90;;;;;;5055073;28;20480;-61
2022/06/17 00:42:44;;;;;;;2.90;2.58;;;22.20;56.90;;;;;;5053924;28;20052;-61
2022/06/17 00:45:34;;;;;;;3.20;2.55;;;22.20;56.90;;;;;;5035818;28;20037;-61
2022/06/17 00:48:36;;;;;;;2.60;2.40;;;22.20;56.70;;;;;;5054765;28;20441;-61
2022/06/17 00:51:12;;;;;;;3.28;2.97;;;22.20;56.80;;;;;;5043785;28;20124;-61
2022/06/17 00:54:13;;;;;;;2.45;2.33;;;22.20;56.80;;;;;;5053583;28;20049;-62
2022/06/17 00:56:38;;;;;;;2.67;2.47;;;22.10;56.70;;;;;;5053478;28;20036;-61
2022/06/17 00:59:10;;;;;;;1.98;1.88;;;22.10;56.80;;;;;;5036595;28;20581;-62
2022/06/17 01:01:53;;;;;;;2.50;2.30;;;22.20;56.90;;;;;;5055669;28;20041;-62
2022/06/17 01:04:28;;;;;;;2.58;2.38;;;22.20;56.80;;;;;;5054332;28;20106;-62
2022/06/17 01:07:09;;;;;;;2.65;2.45;;;22.10;56.90;;;;;;5034575;28;20114;-62
2022/06/17 01:12:25;;;;;;;2.25;2.15;;;22.10;56.70;;;;;;5052180;28;20187;-62
2022/06/17 01:14:53;;;;;;;2.80;2.50;;;22.10;56.70;;;;;;5053892;28;20405;-61
2022/06/17 01:17:19;;;;;;;2.60;2.40;;;22.10;56.70;;;;;;5037426;28;20071;-61
2022/06/17 01:19:49;;;;;;;2.83;2.58;;;22.10;56.70;;;;;;5052240;28;20070;-61
2022/06/17 01:22:25;;;;;;;3.75;2.35;;;22.10;56.70;;;;;;5038097;28;20060;-62
2022/06/17 01:24:53;;;;;;;2.20;2.00;;;22.10;56.60;;;;;;5037202;28;20395;-62
2022/06/17 01:27:22;;;;;;;2.47;2.28;;;22.10;56.60;;;;;;5051957;28;20124;-61
2022/06/17 01:29:49;;;;;;;2.58;2.38;;;22.10;56.60;;;;;;5049663;28;20032;-62
2022/06/17 01:32:18;;;;;;;3.33;2.30;;;22.10;56.60;;;;;;5052686;28;20283;-62
2022/06/17 01:34:44;;;;;;;2.55;2.28;;;22.10;56.60;;;;;;5053200;28;20033;-62
2022/06/17 01:37:10;;;;;;;2.45;2.30;;;22.10;56.50;;;;;;5051315;28;20765;-63
2022/06/17 01:39:36;;;;;;;2.47;2.28;;;22.10;56.50;;;;;;5052132;28;20542;-63
2022/06/17 01:42:02;;;;;;;2.47;2.28;;;22.10;56.50;;;;;;5053949;28;20033;-62
2022/06/17 01:44:35;;;;;;;2.67;2.47;;;22.10;56.50;;;;;;5053885;28;20421;-61
2022/06/17 01:47:06;;;;;;;2.88;2.58;;;22.10;56.50;;;;;;5036848;28;20622;-62
2022/06/17 01:49:37;;;;;;;3.92;2.63;;;22.10;56.50;;;;;;5051210;28;20060;-61
2022/06/17 01:52:05;;;;;;;2.80;2.53;;;22.10;56.50;;;;;;5052328;28;20032;-61
2022/06/17 01:54:35;;;;;;;2.17;2.08;;;22.10;56.40;;;;;;5035033;28;20041;-61
2022/06/17 01:57:04;;;;;;;2.60;2.40;;;22.10;56.50;;;;;;5053130;28;20092;-62
2022/06/17 01:59:47;;;;;;;2.85;2.65;;;22.10;56.40;;;;;;5054541;28;20071;-62
2022/06/17 02:02:15;;;;;;;2.42;2.22;;;22.10;56.20;;;;;;5053642;28;20474;-62
2022/06/17 02:04:50;;;;;;;2.47;2.33;;;22.10;56.30;;;;;;5051860;28;20896;-62
2022/06/17 02:07:31;;;;;;;2.50;2.30;;;22.10;56.30;;;;;;5053567;28;20071;-61
2022/06/17 02:09:57;;;;;;;2.72;2.47;;;22.10;56.20;;;;;;5050865;28;20087;-61
2022/06/17 02:12:24;;;;;;;2.47;2.28;;;22.10;56.30;;;;;;5052072;28;20471;-62
2022/06/17 02:14:53;;;;;;;2.58;2.38;;;22.00;56.30;;;;;;5051367;28;20051;-61
2022/06/17 02:17:20;;;;;;;3.42;2.67;;;22.10;56.30;;;;;;5052887;28;20090;-61
2022/06/17 02:19:46;;;;;;;2.78;2.58;;;22.00;56.20;;;;;;5054348;28;20048;-62
2022/06/17 02:22:15;;;;;;;2.75;2.55;;;22.10;56.30;;;;;;5051975;28;20044;-62
2022/06/17 02:24:42;;;;;;;2.63;2.38;;;22.10;56.30;;;;;;5053166;28;20049;-62
2022/06/17 02:27:11;;;;;;;2.80;2.60;;;22.00;56.20;;;;;;5035013;28;20476;-62
2022/06/17 02:29:39;;;;;;;2.95;2.63;;;22.10;56.20;;;;;;5054284;28;20114;-62
2022/06/17 02:32:07;;;;;;;3.28;2.50;;;22.10;56.20;;;;;;5053850;28;20397;-61
2022/06/17 02:34:35;;;;;;;3.30;2.50;;;22.00;56.20;;;;;;5052379;28;20028;-62
2022/06/17 02:37:09;;;;;;;3.00;2.53;;;22.10;56.20;;;;;;5052562;28;20052;-62
2022/06/17 02:39:40;;;;;;;3.13;2.67;;;22.10;56.20;;;;;;5052104;28;20060;-61
2022/06/17 02:42:06;;;;;;;;;;;22.00;56.20;;;;;;5054239;28;20036;-61
2022/06/17 02:44:38;;;;;;;3.05;2.85;;;22.00;56.00;;;;;;5050898;28;19920;-61
2022/06/17 02:47:05;;;;;;;3.85;2.92;;;22.00;56.20;;;;;;5049143;28;20051;-61
2022/06/17 02:49:35;;;;;;;3.00;2.80;;;22.00;56.20;;;;;;5051572;28;20083;-61
2022/06/17 02:52:04;;;;;;;3.05;2.85;;;22.00;56.20;;;;;;5051983;28;20028;-61
2022/06/17 02:54:35;;;;;;;3.28;3.00;;;22.00;56.20;;;;;;5049526;28;20037;-62
2022/06/17 02:57:02;;;;;;;3.28;3.00;;;22.00;56.10;;;;;;5051813;28;20818;-62
2022/06/17 02:59:50;;;;;;;2.88;2.67;;;22.00;56.10;;;;;;5053886;28;20531;-61
2022/06/17 03:02:22;;;;;;;3.10;2.90;;;22.00;56.00;;;;;;5052625;28;20056;-61
2022/06/17 03:04:48;;;;;;;2.78;2.58;;;22.00;56.80;;;;;;5051285;28;20051;-62
2022/06/17 03:07:16;;;;;;;3.10;2.85;;;22.00;56.10;;;;;;5052950;28;20087;-63
2022/06/17 03:09:43;;;;;;;2.88;2.67;;;22.00;56.10;;;;;;5055801;28;20032;-62
2022/06/17 03:12:13;;;;;;;3.33;2.90;;;22.00;56.10;;;;;;5051768;28;20037;-61
2022/06/17 03:15:00;;;;;;;3.40;3.10;;;22.00;56.00;;;;;;5052226;28;20515;-61
2022/06/17 03:17:26;;;;;;;2.90;2.70;;;22.00;56.10;;;;;;5050951;28;20055;-61
2022/06/17 03:19:56;;;;;;;3.30;3.00;;;22.00;56.10;;;;;;5051449;28;20052;-62
2022/06/17 03:22:25;;;;;;;3.10;2.90;;;22.00;56.00;;;;;;5052292;28;20493;-61
2022/06/17 03:25:24;;;;;;;3.33;3.10;;;22.00;56.00;;;;;;5052381;28;20521;-61
2022/06/17 03:27:54;;;;;;;2.80;2.60;;;22.00;55.90;;;;;;5051288;28;20036;-62
2022/06/17 03:30:36;;;;;;;3.30;3.00;;;22.00;56.00;;;;;;5052854;28;20051;-62
2022/06/17 03:33:28;;;;;;;4.05;3.00;;;22.00;56.00;;;;;;5052816;28;20066;-62
2022/06/17 03:35:58;;;;;;;3.35;3.05;;;22.00;55.90;;;;;;5049970;28;20500;-61
2022/06/17 03:38:39;;;;;;;;;;;22.00;56.00;;;;;;5035808;28;20075;-62
2022/06/17 03:41:45;;;;;;;3.33;3.03;;;22.00;55.80;;;;;;5050943;28;19959;-62
2022/06/17 03:44:18;;;;;;;3.35;3.05;;;22.00;56.00;;;;;;5052479;28;20063;-61
2022/06/17 03:46:50;;;;;;;3.20;2.90;;;22.00;56.00;;;;;;5050195;28;20082;-62
2022/06/17 03:49:26;;;;;;;3.38;3.08;;;22.00;56.00;;;;;;5051550;28;20040;-61
2022/06/17 03:51:57;;;;;;;4.53;3.13;;;22.00;56.00;;;;;;5035183;28;20037;-62
2022/06/17 03:54:24;;;;;;;3.15;2.92;;;22.00;56.00;;;;;;5040754;28;20377;-61
2022/06/17 03:56:52;;;;;;;3.45;3.05;;;21.90;56.00;;;;;;5051720;28;20072;-61
2022/06/17 03:59:30;;;;;;;3.00;2.80;;;22.00;55.90;;;;;;5052730;28;20048;-61
2022/06/17 04:02:05;;;;;;;3.15;2.85;;;22.00;55.90;;;;;;5053893;28;20029;-61
2022/06/17 04:04:40;;;;;;;3.25;3.05;;;22.00;55.90;;;;;;5056048;28;20089;-63
2022/06/17 04:07:06;;;;;;;3.20;2.90;;;22.00;55.80;;;;;;5054676;28;20969;-62
2022/06/17 04:09:40;;;;;;;3.35;3.05;;;22.00;56.00;;;;;;5037978;28;20049;-61
2022/06/17 04:12:19;;;;;;;3.30;3.00;;;22.00;55.90;;;;;;5056579;28;20021;-61
2022/06/17 04:15:11;;;;;;;3.28;2.75;;;21.90;55.90;;;;;;5054410;28;20033;-62
2022/06/17 04:17:41;;;;;;;3.40;3.10;;;22.00;55.90;;;;;;5012646;28;20056;-62
2022/06/17 04:20:16;;;;;;;2.92;2.72;;;22.00;55.70;;;;;;5052781;28;20045;-62
2022/06/17 04:22:46;;;;;;;3.20;2.90;;;22.00;55.60;;;;;;5052210;28;20579;-61
2022/06/17 04:25:19;;;;;;;2.78;2.58;;;22.00;55.60;;;;;;5035002;28;20066;-61
2022/06/17 04:28:18;;;;;;;3.03;2.75;;;22.00;55.60;;;;;;5054828;28;20102;-61
2022/06/17 04:30:42;;;;;;;3.47;2.65;;;21.90;56.30;;;;;;5051953;28;20036;-62
2022/06/17 04:33:26;;;;;;;;;;;22.00;55.70;;;;;;5034838;28;20135;-62
2022/06/17 04:36:09;;;;;;;3.38;3.08;;;21.90;55.70;;;;;;5054159;28;19931;-62
2022/06/17 04:38:53;;;;;;;3.78;3.45;;;22.00;56.20;;;;;;5034540;28;20044;-62
2022/06/17 04:41:20;;;;;;;3.65;3.20;;;22.00;56.20;;;;;;5018287;28;20052;-61
2022/06/17 04:43:50;;;;;;;3.80;3.30;;;22.00;56.90;;;;;;5053348;28;20067;-62
2022/06/17 04:46:36;;;;;;;4.13;3.72;;;22.00;56.20;;;;;;5051662;28;20086;-61
2022/06/17 04:49:06;;;;;;;3.92;3.50;;;22.00;56.00;;;;;;5051469;28;20132;-62
2022/06/17 04:51:34;;;;;;;4.32;3.55;;;22.00;56.10;;;;;;5052480;28;20189;-61
2022/06/17 04:54:04;;;;;;;5.75;3.42;;;21.90;56.10;;;;;;5054571;28;20074;-61
2022/06/17 04:56:41;;;;;;;5.10;3.80;;;22.00;56.10;;;;;;5053731;28;20085;-63
2022/06/17 04:59:31;;;;;;;5.50;4.13;;;22.00;56.00;;;;;;5054613;28;20040;-61
2022/06/17 05:01:58;;;;;;;4.63;4.22;;;22.00;55.90;;;;;;5055386;28;20111;-61
2022/06/17 05:04:25;;;;;;;4.10;3.70;;;22.00;55.90;;;;;;5052964;28;20101;-61
2022/06/17 05:06:51;;;;;;;4.93;4.10;;;22.00;55.90;;;;;;5054482;28;20048;-61
2022/06/17 05:09:23;;;;;;;5.30;4.25;;;22.00;56.00;;;;;;5053586;28;20036;-61
2022/06/17 05:12:01;;;;;;;4.35;3.83;;;22.00;56.00;;;;;;5054467;28;20033;-63
2022/06/17 05:14:56;;;;;;;3.90;3.13;;;22.00;56.00;;;;;;5038365;28;20393;-62
2022/06/17 05:17:22;;;;;;;4.40;4.00;;;22.00;55.90;;;;;;5049060;28;20047;-61
2022/06/17 05:19:48;;;;;;;4.88;3.80;;;21.90;55.70;;;;;;5053042;28;20052;-62
2022/06/17 05:22:36;;;;;;;4.40;3.83;;;22.00;55.70;;;;;;5050991;28;20114;-61
2022/06/17 05:25:06;;;;;;;4.25;3.50;;;22.00;55.60;;;;;;5052563;28;20109;-64
2022/06/17 05:27:32;;;;;;;4.43;4.03;;;22.00;55.60;;;;;;5052979;28;20033;-62
2022/06/17 05:29:57;;;;;;;5.50;3.80;;;22.00;55.50;;;;;;5052220;28;20048;-62
2022/06/17 05:32:23;;;;;;;5.38;4.07;;;22.00;55.50;;;;;;5051504;28;20633;-62
2022/06/17 05:34:49;;;;;;;6.88;4.05;;;22.00;55.80;;;;;;5054061;28;20044;-62
2022/06/17 05:37:15;;;;;;;5.03;4.00;;;22.00;56.10;;;;;;5053700;28;20555;-62
2022/06/17 05:39:41;;;;;;;5.18;3.78;;;22.00;56.20;;;;;;5054867;28;20102;-62
2022/06/17 05:42:09;;;;;;;4.05;3.60;;;22.00;56.20;;;;;;5055946;28;20507;-63
2022/06/17 05:44:35;;;;;;;7.43;3.67;;;22.00;56.10;;;;;;5053407;28;20272;-64
2022/06/17 05:47:00;;;;;;;5.10;4.35;;;22.00;56.00;;;;;;5053834;28;20077;-63
2022/06/17 05:49:26;;;;;;;5.95;3.88;;;22.00;55.70;;;;;;5050919;28;20043;-62
2022/06/17 05:51:52;;;;;;;5.20;4.53;;;22.00;55.70;;;;;;5055203;28;20570;-60
2022/06/17 05:54:18;;;;;;;4.88;3.97;;;22.00;55.70;;;;;;5053442;28;20298;-63
2022/06/17 05:56:44;;;;;;;6.53;4.20;;;22.00;55.60;;;;;;5053580;28;20032;-62
2022/06/17 05:59:10;;;;;;;4.60;4.07;;;22.00;55.50;;;;;;5041635;28;20040;-62
2022/06/17 06:01:36;;;;;;;4.40;3.95;;;22.00;55.50;;;;;;5050146;28;20069;-63
2022/06/17 06:04:02;;;;;;;7.07;5.13;;;22.00;55.60;;;;;;5036409;28;20070;-62
2022/06/17 06:06:28;;;;;;;6.07;4.60;;;22.00;55.50;;;;;;5052658;28;20044;-63
2022/06/17 06:08:54;;;;;;;5.50;4.50;;;22.00;55.40;;;;;;5053253;28;20041;-63
2022/06/17 06:11:19;;;;;;;5.65;4.78;;;22.00;55.30;;;;;;5051623;28;20106;-62
2022/06/17 06:13:45;;;;;;;5.63;4.75;;;22.00;55.30;;;;;;5051072;28;20148;-62
2022/06/17 06:16:11;;;;;;;9.73;4.55;;;22.00;55.40;;;;;;5053030;28;20032;-62
2022/06/17 06:18:41;;;;;;;5.40;4.32;;;22.00;55.50;;;;;;5052084;28;20049;-61
2022/06/17 06:21:07;;;;;;;4.95;4.40;;;22.00;55.60;;;;;;5051576;28;20109;-62
2022/06/17 06:23:34;;;;;;;6.55;4.30;;;22.00;55.60;;;;;;5051275;28;20048;-62
2022/06/17 06:26:00;;;;;;;5.22;4.38;;;22.00;55.60;;;;;;5054259;28;20143;-62
2022/06/17 06:28:27;;;;;;;3.83;3.42;;;22.00;55.70;;;;;;5052255;28;20037;-62
2022/06/17 06:31:01;;;;;;;4.38;4.05;;;22.00;55.60;;;;;;5033491;28;20086;-61
2022/06/17 06:33:27;;;;;;;5.15;4.40;;;22.00;55.60;;;;;;5035197;28;20083;-61
2022/06/17 06:35:53;;;;;;;4.43;3.72;;;22.00;55.60;;;;;;5052372;28;20119;-62
2022/06/17 06:38:18;;;;;;;4.15;3.80;;;22.00;55.70;;;;;;5053000;28;20488;-62
2022/06/17 06:40:44;;;;;;;4.53;3.83;;;22.00;55.60;;;;;;5034008;28;20032;-60
2022/06/17 06:43:19;;;;;;;4.38;3.70;;;22.00;55.60;;;;;;5051132;28;20040;-60
2022/06/17 06:45:47;;;;;;;3.90;3.60;;;22.00;55.50;;;;;;5051198;28;20613;-62
2022/06/17 06:48:15;;;;;;;4.65;4.00;;;22.00;55.50;;;;;;5052062;28;20373;-61
2022/06/17 06:50:41;;;;;;;4.40;3.58;;;22.00;55.30;;;;;;5049490;28;20029;-62
2022/06/17 06:53:07;;;;;;;4.70;4.30;;;22.00;55.50;;;;;;5051034;28;20480;-59
2022/06/17 06:55:34;;;;;;;4.03;3.72;;;22.00;55.50;;;;;;5051782;28;20051;-62
2022/06/17 06:58:03;;;;;;;4.70;3.65;;;22.00;55.50;;;;;;5050268;28;20599;-61
2022/06/17 07:00:33;;;;;;;4.80;3.90;;;22.00;55.50;;;;;;5051226;28;20029;-61
2022/06/17 07:02:59;;;;;;;6.07;4.20;;;22.00;55.40;;;;;;5050328;28;20042;-62
2022/06/17 07:05:25;;;;;;;3.97;3.67;;;22.00;55.40;;;;;;5033045;28;20459;-61
2022/06/17 07:07:51;;;;;;;5.72;4.32;;;22.00;55.50;;;;;;5051851;28;20044;-61
2022/06/17 07:10:25;;;;;;;5.18;3.80;;;22.00;55.50;;;;;;5047020;28;20068;-62
2022/06/17 07:12:52;;;;;;;3.92;3.33;;;22.00;55.50;;;;;;5050459;28;20037;-61
2022/06/17 07:15:18;;;;;;;4.00;3.67;;;22.00;55.50;;;;;;5050553;28;20129;-61
2022/06/17 07:17:54;;;;;;;4.25;3.85;;;22.00;55.60;;;;;;5052074;28;20110;-60
2022/06/17 07:20:21;;;;;;;6.13;3.75;;;22.00;55.60;;;;;;5048715;28;20036;-63
2022/06/17 07:22:47;;;;;;;4.72;3.60;;;22.00;55.60;;;;;;5053109;28;20071;-62
2022/06/17 07:25:12;;;;;;;3.88;3.50;;;22.00;55.70;;;;;;5048949;28;20044;-61
2022/06/17 07:27:38;;;;;;;4.00;3.55;;;22.00;56.40;;;;;;5049226;28;20052;-63
2022/06/17 07:30:05;;;;;;;4.68;3.70;;;22.00;55.70;;;;;;5050959;28;20043;-62
2022/06/17 07:32:30;;;;;;;3.90;3.42;;;22.00;55.70;;;;;;5049841;28;20115;-62
2022/06/17 07:34:56;;;;;;;4.82;3.63;;;22.00;55.80;;;;;;5051732;28;20711;-62
2022/06/17 07:40:06;;;;;;;6.38;3.70;;;22.00;56.70;;;;;;5053844;28;20052;-61
2022/06/17 07:42:38;;;;;;;4.25;3.35;;;22.00;56.00;;;;;;5054357;28;20040;-62
2022/06/17 07:45:10;;;;;;;5.68;3.60;;;22.00;56.10;;;;;;5034857;28;20103;-61
2022/06/17 07:47:36;;;;;;;4.40;3.45;;;22.00;56.20;;;;;;5054309;28;20032;-61
2022/06/17 07:50:04;;;;;;;3.92;3.10;;;22.00;56.50;;;;;;5053788;28;20040;-62
2022/06/17 07:52:30;;;;;;;3.83;3.53;;;22.00;56.80;;;;;;5051440;28;20464;-62
2022/06/17 07:54:56;;;;;;;3.55;3.25;;;22.00;56.90;;;;;;5052892;28;20063;-63
2022/06/17 07:57:21;;;;;;;3.80;3.10;;;22.10;57.00;;;;;;5043214;28;20159;-61
2022/06/17 07:59:47;;;;;;;3.35;2.80;;;22.10;56.80;;;;;;5054490;28;20040;-63
2022/06/17 08:02:12;;;;;;;5.45;3.10;;;22.10;56.80;;;;;;5053191;28;20242;-62
2022/06/17 08:04:40;;;;;;;3.50;2.55;;;22.10;56.70;;;;;;5052528;28;20033;-62
2022/06/17 08:07:06;;;;;;;3.58;2.90;;;22.00;56.70;;;;;;5055243;28;20137;-61
2022/06/17 08:09:32;;;;;;;3.78;2.78;;;22.00;56.70;;;;;;5053008;28;20902;-61
2022/06/17 08:11:57;;;;;;;3.22;3.03;;;22.10;57.70;;;;;;5052011;28;20568;-62
2022/06/17 08:14:23;;;;;;;2.92;2.63;;;22.10;57.10;;;;;;5051476;28;20036;-63
2022/06/17 08:16:49;;;;;;;4.43;2.78;;;22.10;57.10;;;;;;5042720;28;20037;-62
2022/06/17 08:19:15;;;;;;;3.55;2.78;;;22.10;57.00;;;;;;5053403;28;20040;-62
2022/06/17 08:21:41;;;;;;;4.78;2.95;;;22.10;57.00;;;;;;5053613;28;20053;-61
2022/06/17 08:24:07;;;;;;;4.15;2.50;;;22.10;56.90;;;;;;5056235;28;20097;-61
2022/06/17 08:26:33;;;;;;;4.13;3.00;;;22.10;57.30;;;;;;5054069;28;20187;-62
2022/06/17 08:28:59;;;;;;;4.75;3.00;;;22.10;57.50;;;;;;5053718;28;20527;-63
2022/06/17 08:31:24;;;;;;;3.72;2.70;;;22.10;57.60;;;;;;5052807;28;20040;-62
2022/06/17 08:33:50;;;;;;;3.28;2.83;;;22.10;57.50;;;;;;5054128;28;20102;-62
2022/06/17 08:36:19;;;;;;;3.53;2.92;;;22.10;57.40;;;;;;5050298;28;20049;-61
2022/06/17 08:38:50;;;;;;;3.72;2.80;;;22.10;57.50;;;;;;5052589;28;20033;-61
2022/06/17 08:41:37;;;;;;;4.03;3.17;;;22.10;57.50;;;;;;5051906;28;20045;-62
2022/06/17 08:44:20;;;;;;;3.03;2.72;;;22.10;57.50;;;;;;5035393;28;20465;-61
2022/06/17 08:47:12;;;;;;;3.75;2.88;;;22.20;57.40;;;;;;5052163;28;20036;-61
2022/06/17 08:50:15;;;;;;;4.55;2.80;;;22.20;57.30;;;;;;5050063;28;20049;-63
2022/06/17 08:53:06;;;;;;;5.63;3.10;;;22.20;57.40;;;;;;5049761;28;20040;-62
2022/06/17 08:56:19;;;;;;;5.28;3.08;;;22.20;57.30;;;;;;5032971;28;20465;-62
2022/06/17 08:58:56;;;;;;;4.20;2.50;;;22.20;57.30;;;;;;5041074;28;20062;-62
2022/06/17 09:02:23;;;;;;;4.03;2.60;;;22.20;57.30;;;;;;5053357;28;20047;-61
2022/06/17 09:05:08;;;;;;;4.10;2.88;;;22.20;57.30;;;;;;5035861;28;20044;-61
2022/06/17 09:07:55;;;;;;;4.05;2.50;;;22.20;57.30;;;;;;5035371;28;20129;-61
2022/06/17 09:10:24;;;;;;;5.75;3.10;;;22.20;57.30;;;;;;5052591;28;20037;-61
2022/06/17 09:13:20;;;;;;;6.43;3.60;;;22.20;57.30;;;;;;5039896;28;20167;-61
2022/06/17 09:15:59;;;;;;;3.65;3.05;;;22.20;57.40;;;;;;5052185;28;20037;-60
2022/06/17 09:18:34;;;;;;;8.30;3.97;;;22.20;57.50;;;;;;5054785;28;20036;-61
2022/06/17 09:21:07;;;;;;;4.65;3.17;;;22.20;57.50;;;;;;5052234;28;20048;-61
2022/06/17 09:23:37;;;;;;;4.35;3.35;;;22.20;57.50;;;;;;5053792;28;20151;-63
2022/06/17 09:26:09;;;;;;;4.55;3.10;;;22.20;57.40;;;;;;5054596;28;20060;-63
2022/06/17 09:28:44;;;;;;;4.80;3.63;;;22.20;57.50;;;;;;5037995;28;20574;-62
2022/06/17 09:31:16;;;;;;;3.67;2.85;;;22.30;57.50;;;;;;5050684;28;20044;-62
2022/06/17 09:33:54;;;;;;;7.32;3.40;;;22.30;57.50;;;;;;5053708;28;20057;-62
2022/06/17 09:36:28;;;;;;;5.18;3.38;;;22.30;57.40;;;;;;5052970;28;20127;-62
2022/06/17 09:39:01;;;;;;;7.65;3.40;;;22.20;57.60;;;;;;5053084;28;20037;-63
2022/06/17 09:41:32;;;;;;;4.95;3.28;;;22.30;57.70;;;;;;5025242;28;20050;-63
2022/06/17 09:44:06;;;;;;;;;;;22.20;57.60;;;;;;5053592;28;20102;-62
2022/06/17 09:46:40;;;;;;;5.28;3.83;;;22.20;57.50;;;;;;5052097;28;19924;-62
2022/06/17 09:49:25;;;;;;;5.03;3.67;;;22.20;57.70;;;;;;5052220;28;20041;-62
2022/06/17 09:52:13;;;;;;;5.50;3.30;;;22.20;57.70;;;;;;5051989;28;20040;-62
2022/06/17 09:55:21;;;;;;;7.07;3.13;;;22.20;57.60;;;;;;5051024;28;20048;-63
2022/06/17 09:58:06;;;;;;;10.23;3.72;;;22.30;57.60;;;;;;4958079;28;20042;-63
2022/06/17 10:00:43;;;;;;;7.85;3.20;;;22.20;57.50;;;;;;4957772;28;20038;-61
2022/06/17 10:03:27;;;;;;;6.13;3.40;;;22.20;57.50;;;;;;5020845;28;20056;-63
2022/06/17 10:05:57;;;;;;;6.75;3.60;;;22.30;57.60;;;;;;5050541;28;20752;-62
2022/06/17 10:08:36;;;;;;;5.28;3.00;;;22.30;57.50;;;;;;5053497;28;20079;-62
2022/06/17 10:11:27;;;;;;;5.88;3.38;;;22.30;57.50;;;;;;5051993;28;20037;-63
2022/06/17 10:14:19;;;;;;;5.53;3.20;;;22.30;57.40;;;;;;5052274;28;20036;-61
2022/06/17 10:20:26;;;;;;;5.05;3.45;;;22.30;57.20;;;;;;5052330;28;20102;-61
2022/06/17 10:23:16;;;;;;;4.75;3.50;;;22.30;57.00;;;;;;5052821;28;20057;-63
2022/06/17 10:26:17;;;;;;;4.17;2.70;;;22.20;57.00;;;;;;5049352;28;20052;-61
2022/06/17 10:28:54;;;;;;;4.75;3.08;;;22.30;57.30;;;;;;5048367;28;20302;-63
2022/06/17 10:31:45;;;;;;;9.18;4.32;;;22.20;57.40;;;;;;5052707;28;20104;-61
2022/06/17 10:34:32;;;;;;;24.27;8.68;;;22.30;57.40;;;;;;5038726;28;20162;-61
2022/06/17 10:37:01;;;;;;;22.23;8.38;;;22.30;57.80;;;;;;5049970;28;20033;-63
2022/06/17 10:39:28;;;;;;;15.93;6.40;;;22.30;58.00;;;;;;5032370;28;20064;-62
2022/06/17 10:41:56;;;;;;;12.77;6.07;;;22.30;58.20;;;;;;5050853;28;20199;-63
2022/06/17 10:44:24;;;;;;;10.18;5.55;;;22.30;58.10;;;;;;5049087;28;20031;-61
2022/06/17 10:47:15;;;;;;;11.18;5.10;;;22.30;58.10;;;;;;5050318;28;20049;-62
2022/06/17 10:49:54;;;;;;;9.68;5.45;;;22.30;58.10;;;;;;5036904;28;20057;-61
2022/06/17 10:52:24;;;;;;;9.50;5.35;;;22.40;58.10;;;;;;5053711;28;20666;-62
2022/06/17 10:54:52;;;;;;;12.75;5.85;;;22.40;58.00;;;;;;5050213;28;20056;-62
2022/06/17 10:57:30;;;;;;;8.23;5.50;;;22.40;58.00;;;;;;5051800;28;20044;-62
2022/06/17 10:59:56;;;;;;;11.13;5.43;;;22.40;57.90;;;;;;5051600;28;20132;-61
2022/06/17 11:02:21;;;;;;;10.98;5.65;;;22.40;57.90;;;;;;5050915;28;20398;-61
2022/06/17 11:04:56;;;;;;;11.38;6.03;;;22.40;58.00;;;;;;5053923;28;20040;-62
2022/06/17 11:07:50;;;;;;;9.27;6.25;;;22.40;58.00;;;;;;5048226;28;20036;-62
2022/06/17 11:10:16;;;;;;;11.38;6.57;;;22.40;58.00;;;;;;5050797;28;20148;-62
2022/06/17 11:12:52;;;;;;;10.52;6.68;;;22.50;58.20;;;;;;5053074;28;20499;-62
2022/06/17 11:15:34;;;;;;;11.43;6.60;;;22.40;58.20;;;;;;5050564;28;20540;-62
2022/06/17 11:18:05;;;;;;;9.48;6.15;;;22.50;58.20;;;;;;5045674;28;20583;-64
2022/06/17 11:20:35;;;;;;;9.30;6.78;;;22.50;58.20;;;;;;5033216;28;20053;-63
2022/06/17 11:23:04;;;;;;;8.30;6.13;;;22.50;58.30;;;;;;5047388;28;20053;-62
2022/06/17 11:25:36;;;;;;;10.73;6.85;;;22.50;58.30;;;;;;5048501;28;20767;-63
2022/06/17 11:28:12;;;;;;;12.73;6.45;;;22.40;58.20;;;;;;5049197;28;20033;-63
2022/06/17 11:30:52;;;;;;;9.90;6.78;;;22.50;58.10;;;;;;5049978;28;20041;-63
2022/06/17 11:33:35;;;;;;;7.68;6.00;;;22.50;58.10;;;;;;5052759;28;20094;-63
2022/06/17 11:36:04;;;;;;;9.38;5.80;;;22.50;58.10;;;;;;5047515;28;20153;-63
2022/06/17 11:38:32;;;;;;;6.97;5.85;;;22.50;58.20;;;;;;5048535;28;20124;-63
2022/06/17 11:41:02;;;;;;;6.32;5.40;;;22.50;58.30;;;;;;5031807;28;20045;-63
2022/06/17 11:43:38;;;;;;;6.20;5.53;;;22.50;58.20;;;;;;5046085;28;20036;-63
2022/06/17 11:46:24;;;;;;;7.72;5.57;;;22.50;58.00;;;;;;5052991;28;20048;-63
2022/06/17 11:49:00;;;;;;;7.97;5.55;;;22.50;57.90;;;;;;5049960;28;20049;-63
2022/06/17 11:51:33;;;;;;;7.50;5.05;;;22.50;57.90;;;;;;5050604;28;20472;-62
2022/06/17 11:54:08;;;;;;;7.38;4.68;;;22.50;57.50;;;;;;5051427;28;20693;-63
2022/06/17 11:56:40;;;;;;;4.82;4.32;;;22.50;57.50;;;;;;5051073;28;20033;-63
2022/06/17 11:59:12;;;;;;;6.70;5.30;;;22.50;57.40;;;;;;5050103;28;20075;-63
2022/06/17 12:01:39;;;;;;;6.97;5.00;;;22.50;57.30;;;;;;5053658;28;20076;-62
2022/06/17 12:04:06;;;;;;;4.95;4.47;;;22.50;57.70;;;;;;5053883;28;20204;-63
2022/06/17 12:06:47;;;;;;;5.45;4.63;;;22.50;57.20;;;;;;5035878;28;20048;-63
2022/06/17 12:09:37;;;;;;;5.32;4.43;;;22.50;57.10;;;;;;5053756;28;20114;-63
2022/06/17 12:12:10;;;;;;;5.97;4.70;;;22.50;57.10;;;;;;5047528;28;20052;-62
2022/06/17 12:14:44;;;;;;;5.68;4.35;;;22.50;57.30;;;;;;5053685;28;20040;-63
2022/06/17 12:17:15;;;;;;;6.20;4.28;;;22.50;57.00;;;;;;5050772;28;20037;-63
2022/06/17 12:19:40;;;;;;;5.93;4.00;;;22.60;56.70;;;;;;5050366;28;20041;-62
2022/06/17 12:22:16;;;;;;;5.03;3.80;;;22.50;56.60;;;;;;5051845;28;20042;-62
2022/06/17 12:25:15;;;;;;;5.45;3.72;;;22.60;56.50;;;;;;5052656;28;20087;-63
2022/06/17 12:27:52;;;;;;;4.32;3.80;;;22.60;56.30;;;;;;5055316;28;20131;-63
2022/06/17 12:30:41;;;;;;;6.15;3.92;;;22.60;56.70;;;;;;5054378;28;20036;-62
2022/06/17 12:33:23;;;;;;;5.60;4.15;;;22.60;56.80;;;;;;5055876;28;20040;-62
2022/06/17 12:36:16;;;;;;;7.85;5.88;;;22.60;56.20;;;;;;5054615;28;20497;-62
2022/06/17 12:39:06;;;;;;;7.57;5.65;;;22.60;56.00;;;;;;5038036;28;20442;-62
2022/06/17 12:41:57;;;;;;;8.13;4.90;;;22.60;55.90;;;;;;5053649;28;20041;-63
2022/06/17 12:44:55;;;;;;;6.30;4.40;;;22.60;55.70;;;;;;5053158;28;20241;-64
2022/06/17 12:47:38;;;;;;;5.43;4.63;;;22.60;55.10;;;;;;5051792;28;20040;-64
2022/06/17 12:54:02;;;;;;;5.03;4.10;;;22.60;55.30;;;;;;5015803;28;20080;-63
2022/06/17 12:56:55;;;;;;;4.63;4.22;;;22.60;55.30;;;;;;5026117;28;20550;-64
2022/06/17 12:59:42;;;;;;;6.00;3.67;;;22.60;55.30;;;;;;5054495;28;20041;-64
2022/06/17 13:02:39;;;;;;;5.25;3.90;;;22.60;55.20;;;;;;5055542;28;20332;-64
2022/06/17 13:05:22;;;;;;;6.07;4.28;;;22.60;55.10;;;;;;5052968;28;20041;-63
2022/06/17 13:07:53;;;;;;;5.43;4.13;;;22.60;55.20;;;;;;5053828;28;20054;-63
2022/06/17 13:10:42;;;;;;;5.05;3.80;;;22.60;55.80;;;;;;5053795;28;20040;-63
2022/06/17 13:13:35;;;;;;;7.07;4.32;;;22.60;56.20;;;;;;5053184;28;20044;-63
2022/06/17 13:16:18;;;;;;;4.93;3.63;;;22.60;56.00;;;;;;5051432;28;20036;-62
2022/06/17 13:18:57;;;;;;;5.68;3.92;;;22.70;56.10;;;;;;5055014;28;20407;-63
2022/06/17 13:21:28;;;;;;;5.25;3.65;;;22.60;56.40;;;;;;5025964;28;20095;-63
2022/06/17 13:24:05;;;;;;;5.82;3.80;;;22.70;56.20;;;;;;5054137;28;20060;-64
2022/06/17 13:26:50;;;;;;;4.65;3.83;;;22.70;56.40;;;;;;5053556;28;20083;-62
2022/06/17 13:29:25;;;;;;;5.30;3.63;;;22.70;56.70;;;;;;5037991;28;20044;-62
2022/06/17 13:32:15;;;;;;;3.78;3.45;;;22.70;56.60;;;;;;5051951;28;20106;-63
2022/06/17 13:34:53;;;;;;;5.50;3.47;;;22.70;56.60;;;;;;5051818;28;20214;-63